This is the latest recevied weather packets stored in our database for station/object KN4QD-13. If no packets are shown the sender has not sent any weather packets the latest 10 day(s).
| Time | Temp. | Humidity | Pressure | Rain* | Wind** | Luminosity | Snow |
|---|---|---|---|---|---|---|---|
| 1777243956 | 18.33° C | 68% | 1014.7 hPa | 0 mm | - | - | - |
| 1777236136 | 21.11° C | 58% | 1014.7 hPa | 0 mm | - | - | - |
| 1777234335 | 21.11° C | 62% | 1014.7 hPa | 0 mm | - | - | - |
| 1777231976 | 20.56° C | 60% | 1014.9 hPa | 0 mm | - | - | - |
| 1777228335 | 21.67° C | 51% | 1015.3 hPa | 0 mm | - | - | - |
| 1777225335 | 20.56° C | 54% | 1015.1 hPa | 0 mm | - | - | - |
| 1777218737 | 18.33° C | 70% | 1015.5 hPa | 0 mm | - | - | - |
| 1777217537 | 17.22° C | 72% | 1015 hPa | 0 mm | - | - | - |
| 1777206757 | 11.67° C | 97% | 1013.9 hPa | 0 mm | - | - | - |
| 1777205537 | 11.67° C | 97% | 1013.6 hPa | 0 mm | - | - | - |
| 1777200137 | 11.67° C | 97% | 1012.4 hPa | 0 mm | - | - | - |
| 1777199537 | 11.67° C | 97% | 1012.1 hPa | 0 mm | - | - | - |
| 1777198336 | 11.67° C | 97% | 1012.2 hPa | 0 mm | - | - | - |
| 1777195956 | 12.22° C | 97% | 1012.1 hPa | 0 mm | - | - | - |
| 1777194136 | 12.22° C | 97% | 1011.7 hPa | 0 mm | - | - | - |
| 1777193536 | 12.22° C | 97% | 1011.5 hPa | 0 mm | - | - | - |
| 1777192956 | 12.22° C | 97% | 1011.4 hPa | 0 mm | - | - | - |
| 1777191136 | 12.22° C | 97% | 1011.6 hPa | 0 mm | - | - | - |
| 1777185756 | 12.22° C | 97% | 1011.7 hPa | 0 mm | - | - | - |
| 1777180356 | 12.22° C | 97% | 1011.5 hPa | 0 mm | - | - | - |
| 1777171356 | 13.33° C | 96% | 1011.7 hPa | 0 mm | - | - | - |
| 1777166536 | 13.33° C | 96% | 1011.3 hPa | 0 mm | - | - | - |
| 1777165936 | 13.33° C | 96% | 1011.1 hPa | 0 mm | - | - | - |
| 1777164756 | 13.89° C | 96% | 1011 hPa | 0 mm | - | - | - |
| 1777160536 | 13.89° C | 95% | 1009.7 hPa | 0 mm | - | - | - |
* Rain latest hour (hover to see other rain measurements)
** Current wind speed in m/s (hover to see current wind gust speed)